PWSweather.com
Personal Weather Stations
Station Observations
CASADIAZ
Golden Meadows, Morrison, CO 80465

Golden MeadowsMorrison, CO 80465

Lat: 39.571, Lon: -105.233

Elevation: 7454

Station Type: Davis Vantage Vue

Latest ConditionsUpdated 4:53:48 PM MDT Wednesday, Aug 15, 2018
Currently Today's Max Today's Min Today's Average
Temperature 75.0°F23.9°C 77.9°F25.5°C 56.5°F13.6°C 68.6°F20.3°C
Dew Point 43.2°F6.2°C 53.8°F12.1°C 32.0°F0.0°C 45.5°F7.5°C
Winds 2.9 mph NE4.7 kmh NE 8.1 mph -13.0 kmh - - 3.2 mph 5.1 kmh
Wind Gusts 6.9 mph11.1 kmh 18.0 mph29.0 kmh - -
Humidity 32% 88% 20% 47%
Pressure 30.09 in1019.0 mb 30.13 in1020.3 mb 30.06 in1017.9 mb -
Hour Temp Dew Point Humidity Winds Wind Gusts Pressure Precip Precip Rate Daily Precip Total
04:53 PM 75.0°F23.9°C 43.2°F6.2°C 32% 2.9 mph NE4.7 kmh NE 6.9 mph11.1 kmh 30.09 in1019.0 mb 0.00 in0.0 mm 0.00 in0.0 mm 0.00 in0.0 mm
04:48 PM 75.0°F23.9°C 42.3°F5.7°C 31% 4.9 mph SE7.9 kmh SE 6.0 mph9.7 kmh 30.09 in1019.0 mb 0.00 in0.0 mm 0.00 in0.0 mm 0.00 in0.0 mm
04:43 PM 75.4°F24.1°C 41.7°F5.4°C 30% 4.9 mph E7.9 kmh E 11.0 mph17.7 kmh 30.09 in1019.0 mb 0.00 in0.0 mm 0.00 in0.0 mm 0.00 in0.0 mm
04:38 PM 76.3°F24.6°C 42.6°F5.9°C 30% 4.9 mph E7.9 kmh E 8.9 mph14.3 kmh 30.09 in1019.0 mb 0.00 in0.0 mm 0.00 in0.0 mm 0.00 in0.0 mm
04:33 PM 76.5°F24.7°C 42.8°F6.0°C 30% 4.9 mph E7.9 kmh E 10.1 mph16.3 kmh 30.09 in1019.0 mb 0.00 in0.0 mm 0.00 in0.0 mm 0.00 in0.0 mm
04:28 PM 76.6°F24.8°C 42.1°F5.6°C 29% 4.0 mph ENE6.4 kmh ENE 12.1 mph19.5 kmh 30.09 in1019.0 mb 0.00 in0.0 mm 0.00 in0.0 mm 0.00 in0.0 mm
04:23 PM 76.5°F24.7°C 42.8°F6.0°C 30% 4.0 mph E6.4 kmh E 8.9 mph14.3 kmh 30.09 in1019.0 mb 0.00 in0.0 mm 0.00 in0.0 mm 0.00 in0.0 mm
04:18 PM 75.9°F24.4°C 42.3°F5.7°C 30% 4.0 mph S6.4 kmh S 11.0 mph17.7 kmh 30.09 in1019.0 mb 0.00 in0.0 mm 0.00 in0.0 mm 0.00 in0.0 mm
04:13 PM 75.7°F24.3°C 42.1°F5.6°C 30% 4.9 mph SE7.9 kmh SE 8.1 mph13.0 kmh 30.09 in1019.0 mb 0.00 in0.0 mm 0.00 in0.0 mm 0.00 in0.0 mm
04:08 PM 75.9°F24.4°C 43.9°F6.6°C 32% 6.9 mph E11.1 kmh E 13.0 mph20.9 kmh 30.09 in1019.0 mb 0.00 in0.0 mm 0.00 in0.0 mm 0.00 in0.0 mm
04:03 PM 76.1°F24.5°C 43.3°F6.3°C 31% 4.9 mph E7.9 kmh E 11.0 mph17.7 kmh 30.09 in1019.0 mb 0.00 in0.0 mm 0.00 in0.0 mm 0.00 in0.0 mm
03:58 PM 76.3°F24.6°C 43.3°F6.3°C 31% 4.9 mph ESE7.9 kmh ESE 8.1 mph13.0 kmh 30.09 in1019.0 mb 0.00 in0.0 mm 0.00 in0.0 mm 0.00 in0.0 mm
03:53 PM 76.1°F24.5°C 43.3°F6.3°C 31% 4.9 mph NNE7.9 kmh NNE 12.1 mph19.5 kmh 30.10 in1019.3 mb 0.00 in0.0 mm 0.00 in0.0 mm 0.00 in0.0 mm
03:48 PM 75.9°F24.4°C 43.2°F6.2°C 31% 4.0 mph NE6.4 kmh NE 8.1 mph13.0 kmh 30.09 in1019.0 mb 0.00 in0.0 mm 0.00 in0.0 mm 0.00 in0.0 mm
03:43 PM 75.7°F24.3°C 43.0°F6.1°C 31% 4.9 mph NE7.9 kmh NE 6.9 mph11.1 kmh 30.09 in1019.0 mb 0.00 in0.0 mm 0.00 in0.0 mm 0.00 in0.0 mm
03:38 PM 75.4°F24.1°C 41.7°F5.4°C 30% 4.9 mph ESE7.9 kmh ESE 10.1 mph16.3 kmh 30.09 in1019.0 mb 0.00 in0.0 mm 0.00 in0.0 mm 0.00 in0.0 mm
03:33 PM 75.2°F24.0°C 44.1°F6.7°C 33% 4.9 mph SE7.9 kmh SE 8.1 mph13.0 kmh 30.10 in1019.3 mb 0.00 in0.0 mm 0.00 in0.0 mm 0.00 in0.0 mm
03:28 PM 75.4°F24.1°C 43.5°F6.4°C 32% 6.0 mph E9.7 kmh E 12.1 mph19.5 kmh 30.10 in1019.3 mb 0.00 in0.0 mm 0.00 in0.0 mm 0.00 in0.0 mm
03:23 PM 75.7°F24.3°C 43.7°F6.5°C 32% 4.9 mph ENE7.9 kmh ENE 11.0 mph17.7 kmh 30.10 in1019.3 mb 0.00 in0.0 mm 0.00 in0.0 mm 0.00 in0.0 mm
03:18 PM 75.6°F24.2°C 45.1°F7.3°C 34% 4.0 mph ENE6.4 kmh ENE 13.0 mph20.9 kmh 30.09 in1019.0 mb 0.00 in0.0 mm 0.00 in0.0 mm 0.00 in0.0 mm
03:13 PM 75.4°F24.1°C 45.1°F7.3°C 34% 4.9 mph E7.9 kmh E 8.9 mph14.3 kmh 30.10 in1019.3 mb 0.00 in0.0 mm 0.00 in0.0 mm 0.00 in0.0 mm
03:08 PM 75.2°F24.0°C 45.7°F7.6°C 35% 6.0 mph ENE9.7 kmh ENE 11.0 mph17.7 kmh 30.10 in1019.3 mb 0.00 in0.0 mm 0.00 in0.0 mm 0.00 in0.0 mm
03:03 PM 75.7°F24.3°C 45.3°F7.4°C 34% 4.9 mph ESE7.9 kmh ESE 12.1 mph19.5 kmh 30.10 in1019.3 mb 0.00 in0.0 mm 0.00 in0.0 mm 0.00 in0.0 mm
02:58 PM 75.7°F24.3°C 47.7°F8.7°C 37% 4.0 mph E6.4 kmh E 8.1 mph13.0 kmh 30.10 in1019.3 mb 0.00 in0.0 mm 0.00 in0.0 mm 0.00 in0.0 mm
02:53 PM 75.4°F24.1°C 46.6°F8.1°C 36% 4.9 mph NE7.9 kmh NE 13.0 mph20.9 kmh 30.10 in1019.3 mb 0.00 in0.0 mm 0.00 in0.0 mm 0.00 in0.0 mm
02:48 PM 75.4°F24.1°C 48.0°F8.9°C 38% 4.9 mph E7.9 kmh E 11.0 mph17.7 kmh 30.10 in1019.3 mb 0.00 in0.0 mm 0.00 in0.0 mm 0.00 in0.0 mm
02:43 PM 75.0°F23.9°C 46.9°F8.3°C 37% 6.0 mph NE9.7 kmh NE 10.1 mph16.3 kmh 30.10 in1019.3 mb 0.00 in0.0 mm 0.00 in0.0 mm 0.00 in0.0 mm
02:38 PM 75.0°F23.9°C 49.1°F9.5°C 40% 4.9 mph E7.9 kmh E 10.1 mph16.3 kmh 30.10 in1019.3 mb 0.00 in0.0 mm 0.00 in0.0 mm 0.00 in0.0 mm
02:33 PM 75.2°F24.0°C 49.3°F9.6°C 40% 4.0 mph NE6.4 kmh NE 11.0 mph17.7 kmh 30.11 in1019.6 mb 0.00 in0.0 mm 0.00 in0.0 mm 0.00 in0.0 mm
02:28 PM 75.2°F24.0°C 49.3°F9.6°C 40% 4.9 mph NE7.9 kmh NE 8.9 mph14.3 kmh 30.11 in1019.6 mb 0.00 in0.0 mm 0.00 in0.0 mm 0.00 in0.0 mm
02:23 PM 74.5°F23.6°C 48.6°F9.2°C 40% 6.0 mph NW9.7 kmh NW 12.1 mph19.5 kmh 30.11 in1019.6 mb 0.00 in0.0 mm 0.00 in0.0 mm 0.00 in0.0 mm
02:18 PM 74.5°F23.6°C 48.6°F9.2°C 40% 4.9 mph NW7.9 kmh NW 15.0 mph24.1 kmh 30.11 in1019.6 mb 0.00 in0.0 mm 0.00 in0.0 mm 0.00 in0.0 mm
02:13 PM 74.7°F23.7°C 49.5°F9.7°C 41% 6.0 mph ESE9.7 kmh ESE 12.1 mph19.5 kmh 30.11 in1019.6 mb 0.00 in0.0 mm 0.00 in0.0 mm 0.00 in0.0 mm
02:08 PM 73.9°F23.3°C 49.5°F9.7°C 42% 6.9 mph ENE11.1 kmh ENE 14.1 mph22.7 kmh 30.11 in1019.6 mb 0.00 in0.0 mm 0.00 in0.0 mm 0.00 in0.0 mm
02:03 PM 74.5°F23.6°C 49.3°F9.6°C 41% 6.0 mph ENE9.7 kmh ENE 10.1 mph16.3 kmh 30.11 in1019.6 mb 0.00 in0.0 mm 0.00 in0.0 mm 0.00 in0.0 mm
01:58 PM 74.8°F23.8°C 48.2°F9.0°C 39% 4.0 mph N6.4 kmh N 12.1 mph19.5 kmh 30.11 in1019.6 mb 0.00 in0.0 mm 0.00 in0.0 mm 0.00 in0.0 mm
01:53 PM 74.5°F23.6°C 49.3°F9.6°C 41% 4.0 mph NE6.4 kmh NE 12.1 mph19.5 kmh 30.11 in1019.6 mb 0.00 in0.0 mm 0.00 in0.0 mm 0.00 in0.0 mm
01:48 PM 73.8°F23.2°C 48.6°F9.2°C 41% 4.9 mph W7.9 kmh W 8.9 mph14.3 kmh 30.11 in1019.6 mb 0.00 in0.0 mm 0.00 in0.0 mm 0.00 in0.0 mm
01:43 PM 73.6°F23.1°C 49.1°F9.5°C 42% 4.9 mph E7.9 kmh E 11.0 mph17.7 kmh 30.11 in1019.6 mb 0.00 in0.0 mm 0.00 in0.0 mm 0.00 in0.0 mm
01:38 PM 74.1°F23.4°C 51.4°F10.8°C 45% 4.9 mph ENE7.9 kmh ENE 10.1 mph16.3 kmh 30.11 in1019.6 mb 0.00 in0.0 mm 0.00 in0.0 mm 0.00 in0.0 mm
01:33 PM 74.8°F23.8°C 52.7°F11.5°C 46% 4.9 mph ESE7.9 kmh ESE 11.0 mph17.7 kmh 30.11 in1019.6 mb 0.00 in0.0 mm 0.00 in0.0 mm 0.00 in0.0 mm
01:28 PM 74.8°F23.8°C 52.7°F11.5°C 46% 4.9 mph NE7.9 kmh NE 12.1 mph19.5 kmh 30.11 in1019.6 mb 0.00 in0.0 mm 0.00 in0.0 mm 0.00 in0.0 mm
01:23 PM 74.8°F23.8°C 51.4°F10.8°C 44% 6.0 mph NE9.7 kmh NE 13.0 mph20.9 kmh 30.11 in1019.6 mb 0.00 in0.0 mm 0.00 in0.0 mm 0.00 in0.0 mm
01:18 PM 75.6°F24.2°C 53.2°F11.8°C 46% 6.0 mph N9.7 kmh N 18.0 mph29.0 kmh 30.11 in1019.6 mb 0.00 in0.0 mm 0.00 in0.0 mm 0.00 in0.0 mm
01:13 PM 76.3°F24.6°C 52.2°F11.2°C 43% 4.9 mph E7.9 kmh E 11.0 mph17.7 kmh 30.10 in1019.3 mb 0.00 in0.0 mm 0.00 in0.0 mm 0.00 in0.0 mm
01:08 PM 75.4°F24.1°C 53.2°F11.8°C 46% 6.9 mph E11.1 kmh E 14.1 mph22.7 kmh 30.10 in1019.3 mb 0.00 in0.0 mm 0.00 in0.0 mm 0.00 in0.0 mm
01:03 PM 75.7°F24.3°C 52.9°F11.6°C 45% 8.1 mph SW13.0 kmh SW 13.0 mph20.9 kmh 30.11 in1019.6 mb 0.00 in0.0 mm 0.00 in0.0 mm 0.00 in0.0 mm
12:58 PM 75.7°F24.3°C 49.1°F9.5°C 39% 6.9 mph E11.1 kmh E 17.0 mph27.4 kmh 30.11 in1019.6 mb 0.00 in0.0 mm 0.00 in0.0 mm 0.00 in0.0 mm
12:53 PM 76.5°F24.7°C 42.8°F6.0°C 30% 6.0 mph ENE9.7 kmh ENE 13.0 mph20.9 kmh 30.11 in1019.6 mb 0.00 in0.0 mm 0.00 in0.0 mm 0.00 in0.0 mm
12:48 PM 76.3°F24.6°C 43.3°F6.3°C 31% 6.0 mph ESE9.7 kmh ESE 13.0 mph20.9 kmh 30.11 in1019.6 mb 0.00 in0.0 mm 0.00 in0.0 mm 0.00 in0.0 mm
12:43 PM 76.6°F24.8°C 46.2°F7.9°C 34% 4.9 mph E7.9 kmh E 13.0 mph20.9 kmh 30.11 in1019.6 mb 0.00 in0.0 mm 0.00 in0.0 mm 0.00 in0.0 mm
12:38 PM 76.5°F24.7°C 44.4°F6.9°C 32% 4.9 mph NNE7.9 kmh NNE 8.9 mph14.3 kmh 30.11 in1019.6 mb 0.00 in0.0 mm 0.00 in0.0 mm 0.00 in0.0 mm
12:33 PM 75.7°F24.3°C 42.1°F5.6°C 30% 6.9 mph E11.1 kmh E 15.0 mph24.1 kmh 30.11 in1019.6 mb 0.00 in0.0 mm 0.00 in0.0 mm 0.00 in0.0 mm
12:28 PM 76.1°F24.5°C 44.1°F6.7°C 32% 6.0 mph SE9.7 kmh SE 12.1 mph19.5 kmh 30.11 in1019.6 mb 0.00 in0.0 mm 0.00 in0.0 mm 0.00 in0.0 mm
12:23 PM 75.9°F24.4°C 43.9°F6.6°C 32% 4.9 mph NNE7.9 kmh NNE 16.1 mph25.9 kmh 30.11 in1019.6 mb 0.00 in0.0 mm 0.00 in0.0 mm 0.00 in0.0 mm
12:18 PM 76.3°F24.6°C 41.7°F5.4°C 29% 4.0 mph ENE6.4 kmh ENE 10.1 mph16.3 kmh 30.11 in1019.6 mb 0.00 in0.0 mm 0.00 in0.0 mm 0.00 in0.0 mm
12:13 PM 75.4°F24.1°C 38.1°F3.4°C 26% 2.9 mph ESE4.7 kmh ESE 6.9 mph11.1 kmh 30.12 in1020.0 mb 0.00 in0.0 mm 0.00 in0.0 mm 0.00 in0.0 mm
12:08 PM 75.0°F23.9°C 38.8°F3.8°C 27% 2.9 mph E4.7 kmh E 6.0 mph9.7 kmh 30.12 in1020.0 mb 0.00 in0.0 mm 0.00 in0.0 mm 0.00 in0.0 mm
12:03 PM 74.7°F23.7°C 38.5°F3.6°C 27% 2.9 mph ESE4.7 kmh ESE 4.9 mph7.9 kmh 30.12 in1020.0 mb 0.00 in0.0 mm 0.00 in0.0 mm 0.00 in0.0 mm
11:58 AM 74.5°F23.6°C 38.3°F3.5°C 27% 2.0 mph ENE3.2 kmh ENE 6.0 mph9.7 kmh 30.12 in1020.0 mb 0.00 in0.0 mm 0.00 in0.0 mm 0.00 in0.0 mm
11:53 AM 74.5°F23.6°C 38.3°F3.5°C 27% 0.9 mph NE1.4 kmh NE 2.9 mph4.7 kmh 30.12 in1020.0 mb 0.00 in0.0 mm 0.00 in0.0 mm 0.00 in0.0 mm
11:48 AM 74.5°F23.6°C 42.6°F5.9°C 32% 2.0 mph E3.2 kmh E 4.9 mph7.9 kmh 30.12 in1020.0 mb 0.00 in0.0 mm 0.00 in0.0 mm 0.00 in0.0 mm
11:43 AM 74.7°F23.7°C 45.9°F7.7°C 36% 2.0 mph E3.2 kmh E 6.0 mph9.7 kmh 30.12 in1020.0 mb 0.00 in0.0 mm 0.00 in0.0 mm 0.00 in0.0 mm
11:38 AM 74.8°F23.8°C 39.6°F4.2°C 28% 0.9 mph ESE1.4 kmh ESE 6.0 mph9.7 kmh 30.12 in1020.0 mb 0.00 in0.0 mm 0.00 in0.0 mm 0.00 in0.0 mm
11:33 AM 74.7°F23.7°C 39.4°F4.1°C 28% 0.9 mph S1.4 kmh S 4.9 mph7.9 kmh 30.12 in1020.0 mb 0.00 in0.0 mm 0.00 in0.0 mm 0.00 in0.0 mm
11:28 AM 74.8°F23.8°C 41.4°F5.2°C 30% 0.9 mph E1.4 kmh E 4.9 mph7.9 kmh 30.12 in1020.0 mb 0.00 in0.0 mm 0.00 in0.0 mm 0.00 in0.0 mm
11:23 AM 75.4°F24.1°C 41.0°F5.0°C 29% 0.9 mph N1.4 kmh N 4.0 mph6.4 kmh 30.12 in1020.0 mb 0.00 in0.0 mm 0.00 in0.0 mm 0.00 in0.0 mm
11:18 AM 75.6°F24.2°C 32.9°F0.5°C 21% 0.9 mph N1.4 kmh N 2.9 mph4.7 kmh 30.13 in1020.3 mb 0.00 in0.0 mm 0.00 in0.0 mm 0.00 in0.0 mm
11:13 AM 75.9°F24.4°C 32.0°F0.0°C 20% 0.9 mph SW1.4 kmh SW 4.0 mph6.4 kmh 30.13 in1020.3 mb 0.00 in0.0 mm 0.00 in0.0 mm 0.00 in0.0 mm
11:08 AM 75.7°F24.3°C 34.2°F1.2°C 22% 0.9 mph WSW1.4 kmh WSW 4.0 mph6.4 kmh 30.12 in1020.0 mb 0.00 in0.0 mm 0.00 in0.0 mm 0.00 in0.0 mm
11:03 AM 75.7°F24.3°C 33.1°F0.6°C 21% 2.0 mph WNW3.2 kmh WNW 4.0 mph6.4 kmh 30.13 in1020.3 mb 0.00 in0.0 mm 0.00 in0.0 mm 0.00 in0.0 mm
10:58 AM 75.7°F24.3°C 33.1°F0.6°C 21% 2.0 mph N3.2 kmh N 4.0 mph6.4 kmh 30.13 in1020.3 mb 0.00 in0.0 mm 0.00 in0.0 mm 0.00 in0.0 mm
10:53 AM 75.6°F24.2°C 32.9°F0.5°C 21% 2.0 mph ESE3.2 kmh ESE 6.0 mph9.7 kmh 30.13 in1020.3 mb 0.00 in0.0 mm 0.00 in0.0 mm 0.00 in0.0 mm
10:48 AM 75.7°F24.3°C 33.1°F0.6°C 21% 2.0 mph NNE3.2 kmh NNE 6.0 mph9.7 kmh 30.13 in1020.3 mb 0.00 in0.0 mm 0.00 in0.0 mm 0.00 in0.0 mm
10:43 AM 75.4°F24.1°C 34.0°F1.1°C 22% 2.9 mph SE4.7 kmh SE 6.9 mph11.1 kmh 30.13 in1020.3 mb 0.00 in0.0 mm 0.00 in0.0 mm 0.00 in0.0 mm
10:38 AM 75.6°F24.2°C 32.9°F0.5°C 21% 4.0 mph ENE6.4 kmh ENE 11.0 mph17.7 kmh 30.12 in1020.0 mb 0.00 in0.0 mm 0.00 in0.0 mm 0.00 in0.0 mm
10:33 AM 76.3°F24.6°C 33.4°F0.8°C 21% 4.0 mph E6.4 kmh E 13.0 mph20.9 kmh 30.12 in1020.0 mb 0.00 in0.0 mm 0.00 in0.0 mm 0.00 in0.0 mm
10:28 AM 77.2°F25.1°C 36.5°F2.5°C 23% 4.0 mph NE6.4 kmh NE 8.9 mph14.3 kmh 30.12 in1020.0 mb 0.00 in0.0 mm 0.00 in0.0 mm 0.00 in0.0 mm
10:23 AM 77.7°F25.4°C 33.4°F0.8°C 20% 2.0 mph ESE3.2 kmh ESE 8.9 mph14.3 kmh 30.12 in1020.0 mb 0.00 in0.0 mm 0.00 in0.0 mm 0.00 in0.0 mm
10:18 AM 77.9°F25.5°C 34.9°F1.6°C 21% 0.9 mph ESE1.4 kmh ESE 4.0 mph6.4 kmh 30.12 in1020.0 mb 0.00 in0.0 mm 0.00 in0.0 mm 0.00 in0.0 mm
10:13 AM 77.4°F25.2°C 34.3°F1.3°C 21% 0.9 mph NE1.4 kmh NE 4.0 mph6.4 kmh 30.12 in1020.0 mb 0.00 in0.0 mm 0.00 in0.0 mm 0.00 in0.0 mm
10:08 AM 77.4°F25.2°C 34.3°F1.3°C 21% 0.9 mph W1.4 kmh W 5.0 mph8.0 kmh 30.12 in1020.0 mb 0.00 in0.0 mm 0.00 in0.0 mm 0.00 in0.0 mm
10:03 AM 77.4°F25.2°C 34.3°F1.3°C 21% 0.9 mph NNE1.4 kmh NNE 4.0 mph6.4 kmh 30.12 in1020.0 mb 0.00 in0.0 mm 0.00 in0.0 mm 0.00 in0.0 mm
09:58 AM 77.4°F25.2°C 33.1°F0.6°C 20% 0.9 mph ENE1.4 kmh ENE 4.0 mph6.4 kmh 30.12 in1020.0 mb 0.00 in0.0 mm 0.00 in0.0 mm 0.00 in0.0 mm
09:53 AM 77.4°F25.2°C 36.7°F2.6°C 23% 0.9 mph S1.4 kmh S 4.0 mph6.4 kmh 30.12 in1020.0 mb 0.00 in0.0 mm 0.00 in0.0 mm 0.00 in0.0 mm
09:48 AM 77.0°F25.0°C 35.2°F1.8°C 22% 2.0 mph SSE3.2 kmh SSE 7.0 mph11.3 kmh 30.12 in1020.0 mb 0.00 in0.0 mm 0.00 in0.0 mm 0.00 in0.0 mm
09:43 AM 76.8°F24.9°C 36.1°F2.3°C 23% 2.0 mph SE3.2 kmh SE 6.0 mph9.7 kmh 30.12 in1020.0 mb 0.00 in0.0 mm 0.00 in0.0 mm 0.00 in0.0 mm
09:38 AM 76.6°F24.8°C 34.9°F1.6°C 22% 2.9 mph NE4.7 kmh NE 6.0 mph9.7 kmh 30.12 in1020.0 mb 0.00 in0.0 mm 0.00 in0.0 mm 0.00 in0.0 mm
09:33 AM 76.8°F24.9°C 35.1°F1.7°C 22% 2.9 mph NE4.7 kmh NE 8.1 mph13.0 kmh 30.12 in1020.0 mb 0.00 in0.0 mm 0.00 in0.0 mm 0.00 in0.0 mm
09:28 AM 76.5°F24.7°C 37.9°F3.3°C 25% 2.9 mph SE4.7 kmh SE 6.0 mph9.7 kmh 30.12 in1020.0 mb 0.00 in0.0 mm 0.00 in0.0 mm 0.00 in0.0 mm
09:23 AM 76.1°F24.5°C 37.8°F3.2°C 25% 2.0 mph NW3.2 kmh NW 6.0 mph9.7 kmh 30.12 in1020.0 mb 0.00 in0.0 mm 0.00 in0.0 mm 0.00 in0.0 mm
09:18 AM 75.9°F24.4°C 37.6°F3.1°C 25% 2.0 mph NW3.2 kmh NW 4.0 mph6.4 kmh 30.12 in1020.0 mb 0.00 in0.0 mm 0.00 in0.0 mm 0.00 in0.0 mm
09:13 AM 75.6°F24.2°C 39.2°F4.0°C 27% 2.0 mph WNW3.2 kmh WNW 9.0 mph14.5 kmh 30.11 in1019.6 mb 0.00 in0.0 mm 0.00 in0.0 mm 0.00 in0.0 mm
09:08 AM 74.5°F23.6°C 40.1°F4.5°C 29% 2.0 mph SW3.2 kmh SW 4.9 mph7.9 kmh 30.12 in1020.0 mb 0.00 in0.0 mm 0.00 in0.0 mm 0.00 in0.0 mm
09:03 AM 73.9°F23.3°C 40.5°F4.7°C 30% 2.0 mph WSW3.2 kmh WSW 2.9 mph4.7 kmh 30.12 in1020.0 mb 0.00 in0.0 mm 0.00 in0.0 mm 0.00 in0.0 mm
08:58 AM 73.6°F23.1°C 42.6°F5.9°C 33% 2.0 mph E3.2 kmh E 4.9 mph7.9 kmh 30.12 in1020.0 mb 0.00 in0.0 mm 0.00 in0.0 mm 0.00 in0.0 mm
08:53 AM 73.9°F23.3°C 41.4°F5.2°C 31% 2.0 mph WSW3.2 kmh WSW 6.0 mph9.7 kmh 30.11 in1019.6 mb 0.00 in0.0 mm 0.00 in0.0 mm 0.00 in0.0 mm
08:48 AM 74.1°F23.4°C 41.5°F5.3°C 31% 2.0 mph W3.2 kmh W 10.1 mph16.3 kmh 30.11 in1019.6 mb 0.00 in0.0 mm 0.00 in0.0 mm 0.00 in0.0 mm
08:43 AM 74.7°F23.7°C 42.8°F6.0°C 32% 2.0 mph NW3.2 kmh NW 4.9 mph7.9 kmh 30.11 in1019.6 mb 0.00 in0.0 mm 0.00 in0.0 mm 0.00 in0.0 mm
08:38 AM 74.1°F23.4°C 42.4°F5.8°C 32% 2.0 mph SW3.2 kmh SW 4.9 mph7.9 kmh 30.11 in1019.6 mb 0.00 in0.0 mm 0.00 in0.0 mm 0.00 in0.0 mm
08:33 AM 73.6°F23.1°C 42.6°F5.9°C 33% 0.9 mph ENE1.4 kmh ENE 4.9 mph7.9 kmh 30.11 in1019.6 mb 0.00 in0.0 mm 0.00 in0.0 mm 0.00 in0.0 mm
08:28 AM 72.7°F22.6°C 44.2°F6.8°C 36% 0.9 mph W1.4 kmh W 4.9 mph7.9 kmh 30.11 in1019.6 mb 0.00 in0.0 mm 0.00 in0.0 mm 0.00 in0.0 mm
08:23 AM 71.4°F21.9°C 43.7°F6.5°C 37% 2.0 mph SE3.2 kmh SE 6.0 mph9.7 kmh 30.11 in1019.6 mb 0.00 in0.0 mm 0.00 in0.0 mm 0.00 in0.0 mm
08:18 AM 70.3°F21.3°C 43.5°F6.4°C 38% 0.9 mph SSW1.4 kmh SSW 6.0 mph9.7 kmh 30.10 in1019.3 mb 0.00 in0.0 mm 0.00 in0.0 mm 0.00 in0.0 mm
08:13 AM 68.9°F20.5°C 44.2°F6.8°C 41% 0.9 mph WSW1.4 kmh WSW 4.9 mph7.9 kmh 30.10 in1019.3 mb 0.00 in0.0 mm 0.00 in0.0 mm 0.00 in0.0 mm
08:08 AM 67.8°F19.9°C 44.4°F6.9°C 43% 0.9 mph W1.4 kmh W 4.9 mph7.9 kmh 30.10 in1019.3 mb 0.00 in0.0 mm 0.00 in0.0 mm 0.00 in0.0 mm
08:03 AM 66.9°F19.4°C 44.2°F6.8°C 44% 0.9 mph N1.4 kmh N 2.9 mph4.7 kmh 30.10 in1019.3 mb 0.00 in0.0 mm 0.00 in0.0 mm 0.00 in0.0 mm
07:58 AM 66.4°F19.1°C 45.5°F7.5°C 47% 0.9 mph N1.4 kmh N 4.0 mph6.4 kmh 30.09 in1019.0 mb 0.00 in0.0 mm 0.00 in0.0 mm 0.00 in0.0 mm
07:53 AM 65.8°F18.8°C 45.7°F7.6°C 48% 0.9 mph NW1.4 kmh NW 2.9 mph4.7 kmh 30.09 in1019.0 mb 0.00 in0.0 mm 0.00 in0.0 mm 0.00 in0.0 mm
07:48 AM 64.9°F18.3°C 45.9°F7.7°C 50% 0.9 mph N1.4 kmh N 2.9 mph4.7 kmh 30.10 in1019.3 mb 0.00 in0.0 mm 0.00 in0.0 mm 0.00 in0.0 mm
07:43 AM 64.6°F18.1°C 46.0°F7.8°C 51% 0.9 mph N1.4 kmh N 4.0 mph6.4 kmh 30.09 in1019.0 mb 0.00 in0.0 mm 0.00 in0.0 mm 0.00 in0.0 mm
07:38 AM 64.2°F17.9°C 46.2°F7.9°C 52% 0.9 mph N1.4 kmh N 2.9 mph4.7 kmh 30.09 in1019.0 mb 0.00 in0.0 mm 0.00 in0.0 mm 0.00 in0.0 mm
07:33 AM 63.7°F17.6°C 45.1°F7.3°C 51% 0.9 mph NNE1.4 kmh NNE 4.0 mph6.4 kmh 30.09 in1019.0 mb 0.00 in0.0 mm 0.00 in0.0 mm 0.00 in0.0 mm
07:28 AM 63.5°F17.5°C 46.0°F7.8°C 53% Calm Calm 2.0 mph3.2 kmh 30.09 in1019.0 mb 0.00 in0.0 mm 0.00 in0.0 mm 0.00 in0.0 mm
07:23 AM 63.5°F17.5°C 45.5°F7.5°C 52% Calm Calm 2.0 mph3.2 kmh 30.09 in1019.0 mb 0.00 in0.0 mm 0.00 in0.0 mm 0.00 in0.0 mm
07:18 AM 63.9°F17.7°C 45.9°F7.7°C 52% Calm Calm 2.0 mph3.2 kmh 30.09 in1019.0 mb 0.00 in0.0 mm 0.00 in0.0 mm 0.00 in0.0 mm
07:13 AM 63.9°F17.7°C 44.2°F6.8°C 49% Calm Calm 2.9 mph4.7 kmh 30.09 in1019.0 mb 0.00 in0.0 mm 0.00 in0.0 mm 0.00 in0.0 mm
07:08 AM 63.9°F17.7°C 44.2°F6.8°C 49% Calm Calm 2.0 mph3.2 kmh 30.09 in1019.0 mb 0.00 in0.0 mm 0.00 in0.0 mm 0.00 in0.0 mm
07:03 AM 63.1°F17.3°C 43.7°F6.5°C 49% 0.9 mph NE1.4 kmh NE 2.9 mph4.7 kmh 30.08 in1018.6 mb 0.00 in0.0 mm 0.00 in0.0 mm 0.00 in0.0 mm
06:58 AM 62.2°F16.8°C 43.9°F6.6°C 51% 0.9 mph NW1.4 kmh NW 4.0 mph6.4 kmh 30.08 in1018.6 mb 0.00 in0.0 mm 0.00 in0.0 mm 0.00 in0.0 mm
06:53 AM 61.9°F16.6°C 45.5°F7.5°C 55% 0.9 mph ENE1.4 kmh ENE 2.0 mph3.2 kmh 30.08 in1018.6 mb 0.00 in0.0 mm 0.00 in0.0 mm 0.00 in0.0 mm
06:48 AM 61.3°F16.3°C 44.6°F7.0°C 54% 0.9 mph NW1.4 kmh NW 2.9 mph4.7 kmh 30.08 in1018.6 mb 0.00 in0.0 mm 0.00 in0.0 mm 0.00 in0.0 mm
06:43 AM 61.5°F16.4°C 43.7°F6.5°C 52% Calm Calm 4.0 mph6.4 kmh 30.08 in1018.6 mb 0.00 in0.0 mm 0.00 in0.0 mm 0.00 in0.0 mm
06:38 AM 61.5°F16.4°C 44.8°F7.1°C 54% 0.9 mph N1.4 kmh N 2.9 mph4.7 kmh 30.08 in1018.6 mb 0.00 in0.0 mm 0.00 in0.0 mm 0.00 in0.0 mm
06:33 AM 61.5°F16.4°C 44.2°F6.8°C 53% 0.9 mph SW1.4 kmh SW 5.0 mph8.0 kmh 30.07 in1018.3 mb 0.00 in0.0 mm 0.00 in0.0 mm 0.00 in0.0 mm
06:28 AM 61.9°F16.6°C 45.1°F7.3°C 54% 0.9 mph WSW1.4 kmh WSW 2.0 mph3.2 kmh 30.07 in1018.3 mb 0.00 in0.0 mm 0.00 in0.0 mm 0.00 in0.0 mm
06:23 AM 63.3°F17.4°C 45.0°F7.2°C 51% 0.9 mph E1.4 kmh E 4.0 mph6.4 kmh 30.07 in1018.3 mb 0.00 in0.0 mm 0.00 in0.0 mm 0.00 in0.0 mm
06:18 AM 63.9°F17.7°C 43.7°F6.5°C 48% 2.0 mph N3.2 kmh N 10.1 mph16.3 kmh 30.07 in1018.3 mb 0.00 in0.0 mm 0.00 in0.0 mm 0.00 in0.0 mm
06:13 AM 63.7°F17.6°C 42.4°F5.8°C 46% 0.9 mph NW1.4 kmh NW 4.9 mph7.9 kmh 30.07 in1018.3 mb 0.00 in0.0 mm 0.00 in0.0 mm 0.00 in0.0 mm
06:08 AM 63.1°F17.3°C 43.2°F6.2°C 48% 0.9 mph SSE1.4 kmh SSE 2.9 mph4.7 kmh 30.07 in1018.3 mb 0.00 in0.0 mm 0.00 in0.0 mm 0.00 in0.0 mm
06:03 AM 63.1°F17.3°C 44.2°F6.8°C 50% 2.0 mph NW3.2 kmh NW 11.0 mph17.7 kmh 30.07 in1018.3 mb 0.00 in0.0 mm 0.00 in0.0 mm 0.00 in0.0 mm
05:58 AM 62.4°F16.9°C 44.1°F6.7°C 51% 2.0 mph NW3.2 kmh NW 11.0 mph17.7 kmh 30.07 in1018.3 mb 0.00 in0.0 mm 0.00 in0.0 mm 0.00 in0.0 mm
05:53 AM 60.8°F16.0°C 44.6°F7.0°C 55% 2.0 mph W3.2 kmh W 4.9 mph7.9 kmh 30.06 in1017.9 mb 0.00 in0.0 mm 0.00 in0.0 mm 0.00 in0.0 mm
05:48 AM 59.7°F15.4°C 45.9°F7.7°C 60% 0.9 mph WSW1.4 kmh WSW 6.0 mph9.7 kmh 30.07 in1018.3 mb 0.00 in0.0 mm 0.00 in0.0 mm 0.00 in0.0 mm
05:43 AM 57.9°F14.4°C 44.6°F7.0°C 61% 0.9 mph ENE1.4 kmh ENE 8.1 mph13.0 kmh 30.07 in1018.3 mb 0.00 in0.0 mm 0.00 in0.0 mm 0.00 in0.0 mm
05:38 AM 56.8°F13.8°C 45.7°F7.6°C 66% Calm Calm 2.9 mph4.7 kmh 30.07 in1018.3 mb 0.00 in0.0 mm 0.00 in0.0 mm 0.00 in0.0 mm
05:33 AM 56.8°F13.8°C 46.8°F8.2°C 69% Calm Calm 2.0 mph3.2 kmh 30.06 in1017.9 mb 0.00 in0.0 mm 0.00 in0.0 mm 0.00 in0.0 mm
05:28 AM 57.0°F13.9°C 46.9°F8.3°C 69% Calm Calm 4.0 mph6.4 kmh 30.06 in1017.9 mb 0.00 in0.0 mm 0.00 in0.0 mm 0.00 in0.0 mm
05:23 AM 56.7°F13.7°C 46.2°F7.9°C 68% Calm Calm 2.9 mph4.7 kmh 30.06 in1017.9 mb 0.00 in0.0 mm 0.00 in0.0 mm 0.00 in0.0 mm
05:18 AM 56.7°F13.7°C 47.7°F8.7°C 72% Calm Calm 3.0 mph4.8 kmh 30.06 in1017.9 mb 0.00 in0.0 mm 0.00 in0.0 mm 0.00 in0.0 mm
05:13 AM 56.5°F13.6°C 47.5°F8.6°C 72% Calm Calm -- 30.06 in1017.9 mb 0.00 in0.0 mm 0.00 in0.0 mm 0.00 in0.0 mm
05:08 AM 57.0°F13.9°C 48.4°F9.1°C 73% 0.9 mph S1.4 kmh S 2.0 mph3.2 kmh 30.06 in1017.9 mb 0.00 in0.0 mm 0.00 in0.0 mm 0.00 in0.0 mm
05:03 AM 57.7°F14.3°C 48.4°F9.1°C 71% 0.9 mph WNW1.4 kmh WNW 5.0 mph8.0 kmh 30.06 in1017.9 mb 0.00 in0.0 mm 0.00 in0.0 mm 0.00 in0.0 mm
04:58 AM 57.9°F14.4°C 47.8°F8.8°C 69% Calm Calm 2.9 mph4.7 kmh 30.07 in1018.3 mb 0.00 in0.0 mm 0.00 in0.0 mm 0.00 in0.0 mm
04:53 AM 58.6°F14.8°C 48.2°F9.0°C 68% Calm Calm -- 30.06 in1017.9 mb 0.00 in0.0 mm 0.00 in0.0 mm 0.00 in0.0 mm
04:48 AM 59.2°F15.1°C 47.5°F8.6°C 65% Calm Calm 0.9 mph1.4 kmh 30.06 in1017.9 mb 0.00 in0.0 mm 0.00 in0.0 mm 0.00 in0.0 mm
04:43 AM 59.9°F15.5°C 47.7°F8.7°C 64% Calm Calm 0.9 mph1.4 kmh 30.06 in1017.9 mb 0.00 in0.0 mm 0.00 in0.0 mm 0.00 in0.0 mm
04:38 AM 60.6°F15.9°C 48.0°F8.9°C 63% Calm Calm 0.9 mph1.4 kmh 30.06 in1017.9 mb 0.00 in0.0 mm 0.00 in0.0 mm 0.00 in0.0 mm
04:33 AM 61.5°F16.4°C 48.0°F8.9°C 61% 0.9 mph W1.4 kmh W 2.9 mph4.7 kmh 30.06 in1017.9 mb 0.00 in0.0 mm 0.00 in0.0 mm 0.00 in0.0 mm
04:28 AM 61.9°F16.6°C 48.2°F9.0°C 61% 2.0 mph N3.2 kmh N 8.1 mph13.0 kmh 30.07 in1018.3 mb 0.00 in0.0 mm 0.00 in0.0 mm 0.00 in0.0 mm
04:23 AM 61.9°F16.6°C 48.2°F9.0°C 61% 2.9 mph N4.7 kmh N 6.0 mph9.7 kmh 30.06 in1017.9 mb 0.00 in0.0 mm 0.00 in0.0 mm 0.00 in0.0 mm
04:18 AM 62.1°F16.7°C 49.3°F9.6°C 63% 2.9 mph N4.7 kmh N 8.1 mph13.0 kmh 30.06 in1017.9 mb 0.00 in0.0 mm 0.00 in0.0 mm 0.00 in0.0 mm
04:13 AM 61.9°F16.6°C 49.6°F9.8°C 64% 2.9 mph NW4.7 kmh NW 11.0 mph17.7 kmh 30.06 in1017.9 mb 0.00 in0.0 mm 0.00 in0.0 mm 0.00 in0.0 mm
04:08 AM 61.9°F16.6°C 49.6°F9.8°C 64% 2.9 mph SSW4.7 kmh SSW 8.9 mph14.3 kmh 30.06 in1017.9 mb 0.00 in0.0 mm 0.00 in0.0 mm 0.00 in0.0 mm
04:03 AM 61.9°F16.6°C 49.6°F9.8°C 64% 2.9 mph SW4.7 kmh SW 6.9 mph11.1 kmh 30.06 in1017.9 mb 0.00 in0.0 mm 0.00 in0.0 mm 0.00 in0.0 mm
03:58 AM 62.1°F16.7°C 50.2°F10.1°C 65% 4.9 mph NW7.9 kmh NW 11.0 mph17.7 kmh 30.06 in1017.9 mb 0.00 in0.0 mm 0.00 in0.0 mm 0.00 in0.0 mm
03:53 AM 62.2°F16.8°C 50.4°F10.2°C 65% 4.9 mph S7.9 kmh S 16.1 mph25.9 kmh 30.06 in1017.9 mb 0.00 in0.0 mm 0.00 in0.0 mm 0.00 in0.0 mm
03:48 AM 62.2°F16.8°C 50.4°F10.2°C 65% 4.0 mph NW6.4 kmh NW 15.0 mph24.1 kmh 30.06 in1017.9 mb 0.00 in0.0 mm 0.00 in0.0 mm 0.00 in0.0 mm
03:43 AM 62.2°F16.8°C 50.4°F10.2°C 65% 4.0 mph S6.4 kmh S 12.1 mph19.5 kmh 30.07 in1018.3 mb 0.00 in0.0 mm 0.00 in0.0 mm 0.00 in0.0 mm
03:38 AM 62.2°F16.8°C 50.4°F10.2°C 65% 4.0 mph S6.4 kmh S 10.1 mph16.3 kmh 30.07 in1018.3 mb 0.00 in0.0 mm 0.00 in0.0 mm 0.00 in0.0 mm
03:33 AM 62.2°F16.8°C 50.7°F10.4°C 66% 6.0 mph SW9.7 kmh SW 13.0 mph20.9 kmh 30.07 in1018.3 mb 0.00 in0.0 mm 0.00 in0.0 mm 0.00 in0.0 mm
03:28 AM 62.2°F16.8°C 50.7°F10.4°C 66% 6.0 mph W9.7 kmh W 15.0 mph24.1 kmh 30.07 in1018.3 mb 0.00 in0.0 mm 0.00 in0.0 mm 0.00 in0.0 mm
03:23 AM 62.1°F16.7°C 50.5°F10.3°C 66% 4.9 mph SE7.9 kmh SE 13.0 mph20.9 kmh 30.07 in1018.3 mb 0.00 in0.0 mm 0.00 in0.0 mm 0.00 in0.0 mm
03:18 AM 62.1°F16.7°C 50.5°F10.3°C 66% 6.0 mph SW9.7 kmh SW 14.0 mph22.5 kmh 30.07 in1018.3 mb 0.00 in0.0 mm 0.00 in0.0 mm 0.00 in0.0 mm
03:13 AM 62.4°F16.9°C 50.9°F10.5°C 66% 4.9 mph SE7.9 kmh SE 13.0 mph20.9 kmh 30.07 in1018.3 mb 0.00 in0.0 mm 0.00 in0.0 mm 0.00 in0.0 mm
03:08 AM 62.4°F16.9°C 50.5°F10.3°C 65% 4.9 mph SSW7.9 kmh SSW 14.1 mph22.7 kmh 30.08 in1018.6 mb 0.00 in0.0 mm 0.00 in0.0 mm 0.00 in0.0 mm
03:03 AM 62.4°F16.9°C 50.5°F10.3°C 65% 6.0 mph SSW9.7 kmh SSW 17.9 mph28.8 kmh 30.07 in1018.3 mb 0.00 in0.0 mm 0.00 in0.0 mm 0.00 in0.0 mm
02:58 AM 62.4°F16.9°C 50.5°F10.3°C 65% 6.0 mph NW9.7 kmh NW 18.0 mph29.0 kmh 30.07 in1018.3 mb 0.00 in0.0 mm 0.00 in0.0 mm 0.00 in0.0 mm
02:53 AM 62.2°F16.8°C 50.7°F10.4°C 66% 4.9 mph SSE7.9 kmh SSE 17.0 mph27.4 kmh 30.08 in1018.6 mb 0.00 in0.0 mm 0.00 in0.0 mm 0.00 in0.0 mm
02:48 AM 62.1°F16.7°C 50.5°F10.3°C 66% 4.9 mph SSW7.9 kmh SSW 13.0 mph20.9 kmh 30.08 in1018.6 mb 0.00 in0.0 mm 0.00 in0.0 mm 0.00 in0.0 mm
02:43 AM 62.1°F16.7°C 50.9°F10.5°C 67% 6.0 mph WSW9.7 kmh WSW 13.0 mph20.9 kmh 30.07 in1018.3 mb 0.00 in0.0 mm 0.00 in0.0 mm 0.00 in0.0 mm
02:38 AM 62.1°F16.7°C 50.9°F10.5°C 67% 4.9 mph SSW7.9 kmh SSW 17.9 mph28.8 kmh 30.07 in1018.3 mb 0.00 in0.0 mm 0.00 in0.0 mm 0.00 in0.0 mm
02:33 AM 61.9°F16.6°C 50.7°F10.4°C 67% 4.9 mph S7.9 kmh S 11.0 mph17.7 kmh 30.07 in1018.3 mb 0.00 in0.0 mm 0.00 in0.0 mm 0.00 in0.0 mm
02:28 AM 61.9°F16.6°C 50.7°F10.4°C 67% 4.9 mph S7.9 kmh S 11.0 mph17.7 kmh 30.08 in1018.6 mb 0.00 in0.0 mm 0.00 in0.0 mm 0.00 in0.0 mm
02:23 AM 61.9°F16.6°C 50.7°F10.4°C 67% 4.9 mph NW7.9 kmh NW 14.1 mph22.7 kmh 30.08 in1018.6 mb 0.00 in0.0 mm 0.00 in0.0 mm 0.00 in0.0 mm
02:18 AM 62.1°F16.7°C 50.9°F10.5°C 67% 4.9 mph SW7.9 kmh SW 13.0 mph20.9 kmh 30.08 in1018.6 mb 0.00 in0.0 mm 0.00 in0.0 mm 0.00 in0.0 mm
02:13 AM 62.1°F16.7°C 50.9°F10.5°C 67% 4.9 mph NW7.9 kmh NW 12.1 mph19.5 kmh 30.08 in1018.6 mb 0.00 in0.0 mm 0.00 in0.0 mm 0.00 in0.0 mm
02:08 AM 62.1°F16.7°C 50.9°F10.5°C 67% 4.9 mph SSW7.9 kmh SSW 15.0 mph24.1 kmh 30.07 in1018.3 mb 0.00 in0.0 mm 0.00 in0.0 mm 0.00 in0.0 mm
02:03 AM 62.2°F16.8°C 51.1°F10.6°C 67% 4.9 mph SSW7.9 kmh SSW 12.1 mph19.5 kmh 30.07 in1018.3 mb 0.00 in0.0 mm 0.00 in0.0 mm 0.00 in0.0 mm
01:58 AM 62.2°F16.8°C 51.6°F10.9°C 68% 4.0 mph SW6.4 kmh SW 11.0 mph17.7 kmh 30.07 in1018.3 mb 0.00 in0.0 mm 0.00 in0.0 mm 0.00 in0.0 mm
01:53 AM 62.2°F16.8°C 51.6°F10.9°C 68% 6.0 mph SSW9.7 kmh SSW 14.1 mph22.7 kmh 30.08 in1018.6 mb 0.00 in0.0 mm 0.00 in0.0 mm 0.00 in0.0 mm
01:48 AM 62.2°F16.8°C 51.6°F10.9°C 68% 6.0 mph N9.7 kmh N 17.0 mph27.4 kmh 30.08 in1018.6 mb 0.00 in0.0 mm 0.00 in0.0 mm 0.00 in0.0 mm
01:43 AM 62.2°F16.8°C 52.0°F11.1°C 69% 6.0 mph SW9.7 kmh SW 16.1 mph25.9 kmh 30.08 in1018.6 mb 0.00 in0.0 mm 0.00 in0.0 mm 0.00 in0.0 mm
01:38 AM 62.1°F16.7°C 51.8°F11.0°C 69% 6.9 mph SSE11.1 kmh SSE 17.0 mph27.4 kmh 30.08 in1018.6 mb 0.00 in0.0 mm 0.00 in0.0 mm 0.00 in0.0 mm
01:33 AM 61.3°F16.3°C 51.8°F11.0°C 71% 4.9 mph S7.9 kmh S 15.0 mph24.1 kmh 30.08 in1018.6 mb 0.00 in0.0 mm 0.00 in0.0 mm 0.00 in0.0 mm
01:28 AM 60.6°F15.9°C 52.3°F11.3°C 74% 4.0 mph SSE6.4 kmh SSE 15.0 mph24.1 kmh 30.09 in1019.0 mb 0.00 in0.0 mm 0.00 in0.0 mm 0.00 in0.0 mm
01:23 AM 60.1°F15.6°C 52.5°F11.4°C 76% 4.0 mph S6.4 kmh S 13.0 mph20.9 kmh 30.09 in1019.0 mb 0.00 in0.0 mm 0.00 in0.0 mm 0.00 in0.0 mm
01:18 AM 59.5°F15.3°C 53.1°F11.7°C 79% 2.9 mph SE4.7 kmh SE 11.0 mph17.7 kmh 30.09 in1019.0 mb 0.00 in0.0 mm 0.00 in0.0 mm 0.00 in0.0 mm
01:13 AM 59.4°F15.2°C 53.2°F11.8°C 80% 2.9 mph WSW4.7 kmh WSW 12.1 mph19.5 kmh 30.09 in1019.0 mb 0.00 in0.0 mm 0.00 in0.0 mm 0.00 in0.0 mm
01:08 AM 59.4°F15.2°C 53.2°F11.8°C 80% 4.0 mph WNW6.4 kmh WNW 12.1 mph19.5 kmh 30.09 in1019.0 mb 0.00 in0.0 mm 0.00 in0.0 mm 0.00 in0.0 mm
01:03 AM 59.4°F15.2°C 53.2°F11.8°C 80% 4.0 mph E6.4 kmh E 12.1 mph19.5 kmh 30.09 in1019.0 mb 0.00 in0.0 mm 0.00 in0.0 mm 0.00 in0.0 mm
12:58 AM 59.2°F15.1°C 53.4°F11.9°C 81% 4.0 mph SSE6.4 kmh SSE 13.0 mph20.9 kmh 30.09 in1019.0 mb 0.00 in0.0 mm 0.00 in0.0 mm 0.00 in0.0 mm
12:53 AM 59.2°F15.1°C 53.4°F11.9°C 81% 2.9 mph SW4.7 kmh SW 15.0 mph24.1 kmh 30.09 in1019.0 mb 0.00 in0.0 mm 0.00 in0.0 mm 0.00 in0.0 mm
12:48 AM 58.8°F14.9°C 53.4°F11.9°C 82% 2.9 mph E4.7 kmh E 13.0 mph20.9 kmh 30.09 in1019.0 mb 0.00 in0.0 mm 0.00 in0.0 mm 0.00 in0.0 mm
12:43 AM 58.8°F14.9°C 53.4°F11.9°C 82% 4.9 mph WSW7.9 kmh WSW 12.1 mph19.5 kmh 30.09 in1019.0 mb 0.00 in0.0 mm 0.00 in0.0 mm 0.00 in0.0 mm
12:38 AM 59.0°F15.0°C 53.6°F12.0°C 82% 4.9 mph E7.9 kmh E 13.0 mph20.9 kmh 30.10 in1019.3 mb 0.00 in0.0 mm 0.00 in0.0 mm 0.00 in0.0 mm
12:33 AM 59.0°F15.0°C 53.6°F12.0°C 82% 4.0 mph NW6.4 kmh NW 11.0 mph17.7 kmh 30.10 in1019.3 mb 0.00 in0.0 mm 0.00 in0.0 mm 0.00 in0.0 mm
12:28 AM 58.6°F14.8°C 53.4°F11.9°C 83% 4.0 mph NW6.4 kmh NW 13.0 mph20.9 kmh 30.10 in1019.3 mb 0.00 in0.0 mm 0.00 in0.0 mm 0.00 in0.0 mm
12:23 AM 58.3°F14.6°C 53.8°F12.1°C 85% 4.0 mph S6.4 kmh S 13.0 mph20.9 kmh 30.10 in1019.3 mb 0.00 in0.0 mm 0.00 in0.0 mm 0.00 in0.0 mm
12:18 AM 58.1°F14.5°C 53.6°F12.0°C 85% 4.0 mph SSE6.4 kmh SSE 10.1 mph16.3 kmh 30.10 in1019.3 mb 0.00 in0.0 mm 0.00 in0.0 mm 0.00 in0.0 mm
12:13 AM 57.7°F14.3°C 53.6°F12.0°C 86% 4.0 mph SE6.4 kmh SE 14.1 mph22.7 kmh 30.11 in1019.6 mb 0.00 in0.0 mm 0.00 in0.0 mm 0.00 in0.0 mm
12:08 AM 57.6°F14.2°C 53.8°F12.1°C 87% 2.9 mph WSW4.7 kmh WSW 12.1 mph19.5 kmh 30.11 in1019.6 mb 0.00 in0.0 mm 0.00 in0.0 mm 0.00 in0.0 mm
12:03 AM 57.0°F13.9°C 53.4°F11.9°C 88% 2.9 mph NNW4.7 kmh NNW 6.0 mph9.7 kmh 30.11 in1019.6 mb 0.00 in0.0 mm 0.00 in0.0 mm 0.00 in0.0 mm